PATL/TLJ METAR and TAF weather

Enter ICAO airport designator
Station Type Date Time Source
PATL METAR 2020/09/19 18:55 UTC NOAA

PATL 191855Z AUTO VRB04KT 10SM FEW004 05/04 A2974 RMK AO2 SLP077 T00500044


Station Type Date Time Source
PATL Decoded METAR 2020/09/19 18:55 UTC NOAA

Takotna, Tatalina LRRS Airport, AK, United States (PATL) 62-54N 155-59W
Sep 19, 2020 - 02:55 PM EDT / 2020.09.19 1855 UTC
Wind: Variable at 5 MPH (4 KT):0
Visibility: 10 mile(s):0
Sky conditions: mostly clear
Temperature: 41.0 F (5.0 C)
Dew Point: 39.9 F (4.4 C)
Relative Humidity: 95%
Pressure (altimeter): 29.74 in. Hg (1007 hPa)
ob: PATL 191855Z AUTO VRB04KT 10SM FEW004 05/04 A2974 RMK AO2 SLP077 T00500044
cycle: 19

Station Type Date Time Source
PATL TAF 2012/01/12 14:06 UTC NOAA

TAF PATL 1214/1320 VRB06KT 9999 FEW050 SCT110 QNH2998INS TM26/1300Z TM32/1315Z

Example: see airport list